createdAt,value
2022-10-03T00:02:07.406Z,102431.97
2022-10-03T00:04:58.695Z,102427.72
2022-10-03T00:07:51.987Z,102428.66
2022-10-03T00:10:46.692Z,102436.88
2022-10-03T00:13:29.011Z,102435.13
2022-10-03T00:16:09.397Z,102439.66
2022-10-03T00:18:41.692Z,102441.50
2022-10-03T00:21:43.413Z,102442.44
2022-10-03T00:24:30.422Z,102437.91
2022-10-03T00:27:14.317Z,102443.31
2022-10-03T00:29:54.769Z,102451.41
2022-10-03T00:32:48.704Z,102447.75
2022-10-03T00:36:02.672Z,102447.84
2022-10-03T00:38:47.179Z,102452.38
2022-10-03T00:41:41.550Z,102455.28
2022-10-03T00:44:20.990Z,102452.66
2022-10-03T00:46:55.852Z,102452.75
2022-10-03T00:50:04.418Z,102461.91
2022-10-03T00:52:42.844Z,102469.13
2022-10-03T00:55:41.746Z,102469.22
2022-10-03T00:58:39.210Z,102468.44
2022-10-03T01:01:28.663Z,102478.38
2022-10-03T01:04:10.918Z,102482.03
2022-10-03T01:06:57.918Z,102466.00
2022-10-03T01:09:57.045Z,102466.09
2022-10-03T01:12:47.841Z,102469.75
2022-10-03T01:15:37.527Z,102477.94
2022-10-03T01:18:13.169Z,102477.94
2022-10-03T01:20:54.990Z,102476.38
2022-10-03T01:23:29.268Z,102480.31
2022-10-03T01:26:14.406Z,102482.59
2022-10-03T01:29:11.913Z,102491.72
2022-10-03T01:31:42.206Z,102491.81
2022-10-03T01:34:23.213Z,102490.06
2022-10-03T01:36:52.715Z,102502.59
2022-10-03T01:39:34.941Z,102505.47
2022-10-03T01:42:11.374Z,102502.06
2022-10-03T01:44:44.063Z,102503.25
2022-10-03T01:47:36.518Z,102495.44
2022-10-03T01:50:24.100Z,102495.59
2022-10-03T01:53:15.106Z,102492.91
2022-10-03T01:56:08.607Z,102498.56
2022-10-03T01:58:35.002Z,102496.97
2022-10-03T02:01:07.892Z,102495.22
2022-10-03T02:03:57.079Z,102498.88
2022-10-03T02:06:38.568Z,102498.88
2022-10-03T02:09:28.501Z,102498.00
2022-10-03T02:12:25.528Z,102502.53
2022-10-03T02:15:26.144Z,102500.78
2022-10-03T02:18:02.555Z,102498.09
2022-10-03T02:20:43.223Z,102505.22
2022-10-03T02:23:37.030Z,102506.09
2022-10-03T02:26:49.923Z,102506.97
2022-10-03T02:29:29.945Z,102497.13
2022-10-03T02:32:09.615Z,102507.91
2022-10-03T02:35:06.028Z,102508.88
2022-10-03T02:37:32.582Z,102511.56
2022-10-03T02:40:05.188Z,102517.13
2022-10-03T02:42:53.386Z,102514.69
2022-10-03T02:45:28.889Z,102515.66
2022-10-03T02:48:08.440Z,102508.59
2022-10-03T02:50:59.817Z,102505.72
2022-10-03T02:54:07.590Z,102509.47
2022-10-03T02:56:57.802Z,102518.50
2022-10-03T02:59:41.659Z,102514.94
2022-10-03T03:02:37.546Z,102512.25
2022-10-03T03:05:26.345Z,102512.25
2022-10-03T03:08:19.222Z,102507.88
2022-10-03T03:11:08.379Z,102514.06
2022-10-03T03:13:56.503Z,102513.38
2022-10-03T03:16:33.510Z,102520.66
2022-10-03T03:19:15.318Z,102509.97
2022-10-03T03:21:50.302Z,102506.41
2022-10-03T03:24:37.068Z,102511.88
2022-10-03T03:27:31.132Z,102516.47
2022-10-03T03:30:11.647Z,102522.91
2022-10-03T03:32:56.912Z,102523.06
2022-10-03T03:35:26.434Z,102524.97
2022-10-03T03:38:05.346Z,102533.25
2022-10-03T03:40:56.464Z,102533.41
2022-10-03T03:43:55.479Z,102527.22
2022-10-03T03:46:29.878Z,102521.84
2022-10-03T03:49:29.847Z,102522.88
2022-10-03T03:52:14.157Z,102526.59
2022-10-03T03:54:59.540Z,102521.38
2022-10-03T03:57:46.557Z,102520.47
2022-10-03T04:00:31.321Z,102522.25
2022-10-03T04:03:20.018Z,102532.94
2022-10-03T04:06:03.385Z,102522.25
2022-10-03T04:08:47.161Z,102520.53
2022-10-03T04:11:13.794Z,102527.84
2022-10-03T04:13:44.656Z,102518.97
2022-10-03T04:17:01.226Z,102529.91
2022-10-03T04:19:55.253Z,102530.22
2022-10-03T04:22:29.999Z,102526.66
2022-10-03T04:25:22.945Z,102535.00
2022-10-03T04:28:26.737Z,102534.03
2022-10-03T04:31:02.542Z,102537.59
2022-10-03T04:33:56.121Z,102537.69
2022-10-03T04:36:31.538Z,102539.59
2022-10-03T04:39:10.603Z,102539.81
2022-10-03T04:41:54.751Z,102535.38
2022-10-03T04:44:51.566Z,102539.09
2022-10-03T04:47:20.840Z,102540.13
2022-10-03T04:49:56.429Z,102541.16
2022-10-03T04:52:51.896Z,102548.47
2022-10-03T04:55:28.401Z,102544.97
2022-10-03T04:58:32.212Z,102553.22
2022-10-03T05:01:06.490Z,102556.84
2022-10-03T05:04:15.925Z,102549.09
2022-10-03T05:07:14.445Z,102549.09
2022-10-03T05:10:04.498Z,102546.47
2022-10-03T05:13:02.555Z,102554.47
2022-10-03T05:16:06.187Z,102553.44
2022-10-03T05:18:43.632Z,102554.16
2022-10-03T05:21:10.026Z,102554.16
2022-10-03T05:24:15.508Z,102559.53
2022-10-03T05:27:39.287Z,102562.31
2022-10-03T05:30:16.799Z,102567.53
2022-10-03T05:32:51.162Z,102565.72
2022-10-03T05:35:46.014Z,102560.34
2022-10-03T05:38:29.542Z,102566.53
2022-10-03T05:41:17.521Z,102564.69
2022-10-03T05:44:05.111Z,102576.34
2022-10-03T05:46:46.544Z,102577.13
2022-10-03T05:49:34.756Z,102582.53
2022-10-03T05:52:04.315Z,102592.34
2022-10-03T05:54:50.413Z,102579.91
2022-10-03T05:57:35.651Z,102589.72
2022-10-03T06:00:19.867Z,102582.59
2022-10-03T06:03:05.430Z,102588.06
2022-10-03T06:06:03.359Z,102591.72
2022-10-03T06:08:51.390Z,102593.44
2022-10-03T06:11:44.445Z,102600.66
2022-10-03T06:14:23.858Z,102599.88
2022-10-03T06:17:37.609Z,102599.88
2022-10-03T06:20:46.145Z,102599.22
2022-10-03T06:23:48.121Z,102601.28
2022-10-03T06:26:29.646Z,102597.78
2022-10-03T06:29:08.253Z,102600.94
2022-10-03T06:32:02.762Z,102595.78
2022-10-03T06:34:48.673Z,102605.75
2022-10-03T06:37:41.273Z,102602.09
2022-10-03T06:40:42.162Z,102602.69
2022-10-03T06:43:34.017Z,102608.06
2022-10-03T06:46:28.498Z,102601.81
2022-10-03T06:49:18.904Z,102606.03
2022-10-03T06:52:04.908Z,102604.75
2022-10-03T06:55:13.518Z,102622.13
2022-10-03T06:57:58.567Z,102616.94
2022-10-03T07:00:34.774Z,102614.41
2022-10-03T07:04:11.653Z,102610.78
2022-10-03T07:06:56.585Z,102624.56
2022-10-03T07:09:41.769Z,102622.56
2022-10-03T07:12:39.231Z,102617.78
2022-10-03T07:15:18.178Z,102621.91
2022-10-03T07:18:26.456Z,102628.47
2022-10-03T07:21:24.310Z,102627.50
2022-10-03T07:24:10.287Z,102632.78
2022-10-03T07:26:43.774Z,102627.53
2022-10-03T07:29:28.493Z,102627.81
2022-10-03T07:32:13.330Z,102635.16
2022-10-03T07:35:07.443Z,102628.25
2022-10-03T07:38:24.894Z,102616.59
2022-10-03T07:41:22.025Z,102632.03
2022-10-03T07:44:01.705Z,102634.97
2022-10-03T07:46:53.605Z,102635.66
2022-10-03T07:50:04.270Z,102641.25
2022-10-03T07:52:38.091Z,102643.44
2022-10-03T07:55:19.373Z,102640.31
2022-10-03T07:58:07.444Z,102648.34
2022-10-03T08:01:03.761Z,102647.06
2022-10-03T08:04:04.128Z,102648.38
2022-10-03T08:06:44.831Z,102662.16
2022-10-03T08:09:31.584Z,102661.44
2022-10-03T08:12:16.281Z,102663.09
2022-10-03T08:14:52.992Z,102667.66
2022-10-03T08:17:51.055Z,102668.50
2022-10-03T08:20:36.289Z,102667.75
2022-10-03T08:23:41.867Z,102664.25
2022-10-03T08:26:47.718Z,102664.72
2022-10-03T08:29:33.044Z,102661.44
2022-10-03T08:32:24.221Z,102654.91
2022-10-03T08:35:09.747Z,102663.47
2022-10-03T08:38:10.339Z,102648.88
2022-10-03T08:40:53.825Z,102661.66
2022-10-03T08:43:57.821Z,102653.59
2022-10-03T08:46:51.679Z,102655.75
2022-10-03T08:49:51.747Z,102657.66
2022-10-03T08:52:44.049Z,102663.03
2022-10-03T08:55:19.769Z,102655.50
2022-10-03T08:58:11.502Z,102661.34
2022-10-03T09:01:22.363Z,102662.22
2022-10-03T09:03:58.165Z,102661.28
2022-10-03T09:07:16.681Z,102656.84
2022-10-03T09:09:58.930Z,102659.09
2022-10-03T09:12:34.455Z,102663.69
2022-10-03T09:15:14.200Z,102663.44
2022-10-03T09:18:04.331Z,102658.44
2022-10-03T09:20:36.457Z,102651.00
2022-10-03T09:23:34.794Z,102660.69
2022-10-03T09:26:35.706Z,102662.28
2022-10-03T09:29:33.199Z,102662.63
2022-10-03T09:32:18.119Z,102652.19
2022-10-03T09:35:07.080Z,102644.66
2022-10-03T09:37:50.524Z,102652.94
2022-10-03T09:40:56.308Z,102639.38
2022-10-03T09:43:50.458Z,102638.78
2022-10-03T09:46:41.815Z,102636.91
2022-10-03T09:49:23.975Z,102642.56
2022-10-03T09:51:59.301Z,102630.22
2022-10-03T09:54:28.773Z,102635.91
2022-10-03T09:57:16.114Z,102631.97
2022-10-03T09:59:58.210Z,102627.44
2022-10-03T10:02:52.398Z,102618.81
2022-10-03T10:05:49.798Z,102620.41
2022-10-03T10:08:53.866Z,102624.06
2022-10-03T10:11:54.194Z,102624.59
2022-10-03T10:14:42.191Z,102619.88
2022-10-03T10:17:46.305Z,102620.63
2022-10-03T10:20:45.132Z,102617.19
2022-10-03T10:23:24.683Z,102611.16
2022-10-03T10:26:01.781Z,102608.63
2022-10-03T10:28:28.213Z,102603.28
2022-10-03T10:31:32.970Z,102617.81
2022-10-03T10:34:19.198Z,102608.47
2022-10-03T10:37:10.349Z,102610.91
2022-10-03T10:39:53.065Z,102604.00
2022-10-03T10:42:25.545Z,102606.38
2022-10-03T10:45:15.557Z,102604.78
2022-10-03T10:48:03.902Z,102599.28
2022-10-03T10:51:07.883Z,102605.78
2022-10-03T10:54:12.626Z,102610.09
2022-10-03T10:56:57.325Z,102606.06
2022-10-03T10:59:42.050Z,102607.34
2022-10-03T11:02:24.026Z,102602.59
2022-10-03T11:05:29.775Z,102607.34
2022-10-03T11:08:21.024Z,102609.38
2022-10-03T11:11:21.402Z,102610.81
2022-10-03T11:14:17.262Z,102603.03
2022-10-03T11:17:23.911Z,102605.50
2022-10-03T11:20:27.509Z,102604.91
2022-10-03T11:23:08.965Z,102606.66
2022-10-03T11:25:54.244Z,102607.66
2022-10-03T11:28:58.276Z,102602.31
2022-10-03T11:31:46.795Z,102604.91
2022-10-03T11:34:42.487Z,102602.03
2022-10-03T11:37:50.820Z,102608.19
2022-10-03T11:40:39.630Z,102598.34
2022-10-03T11:43:46.274Z,102600.38
2022-10-03T11:46:39.379Z,102596.22
2022-10-03T11:49:38.926Z,102597.09
2022-10-03T11:52:25.635Z,102597.69
2022-10-03T11:55:01.625Z,102593.78
2022-10-03T11:57:31.559Z,102598.69
2022-10-03T12:00:19.896Z,102597.41
2022-10-03T12:03:08.061Z,102593.81
2022-10-03T12:06:31.239Z,102599.44
2022-10-03T12:09:28.978Z,102596.13
2022-10-03T12:12:28.075Z,102598.88
2022-10-03T12:15:15.389Z,102600.31
2022-10-03T12:17:51.073Z,102591.06
2022-10-03T12:20:28.856Z,102596.97
2022-10-03T12:23:13.013Z,102591.06
2022-10-03T12:25:43.325Z,102594.50
2022-10-03T12:28:36.022Z,102590.19
2022-10-03T12:31:18.987Z,102591.66
2022-10-03T12:34:12.505Z,102590.22
2022-10-03T12:36:51.112Z,102585.59
2022-10-03T12:39:45.534Z,102584.72
2022-10-03T12:42:30.797Z,102579.81
2022-10-03T12:45:19.174Z,102579.38
2022-10-03T12:47:56.355Z,102577.34
2022-10-03T12:50:43.110Z,102564.97
2022-10-03T12:53:15.853Z,102572.44
2022-10-03T12:55:51.496Z,102576.88
2022-10-03T12:58:36.929Z,102565.88
2022-10-03T13:01:09.353Z,102559.53
2022-10-03T13:03:59.188Z,102560.84
2022-10-03T13:07:03.006Z,102563.44
2022-10-03T13:09:36.343Z,102562.13
2022-10-03T13:12:22.041Z,102567.75
2022-10-03T13:15:18.272Z,102562.31
2022-10-03T13:18:04.170Z,102552.25
2022-10-03T13:20:37.096Z,102554.28
2022-10-03T13:23:14.386Z,102553.56
2022-10-03T13:26:07.514Z,102544.47
2022-10-03T13:28:59.740Z,102545.03
2022-10-03T13:31:32.616Z,102539.25
2022-10-03T13:34:10.385Z,102555.13
2022-10-03T13:36:44.827Z,102546.66
2022-10-03T13:39:25.862Z,102535.94
2022-10-03T13:42:22.468Z,102535.53
2022-10-03T13:44:55.555Z,102537.72
2022-10-03T13:47:46.870Z,102531.50
2022-10-03T13:50:19.053Z,102531.38
2022-10-03T13:52:57.724Z,102535.97
2022-10-03T13:55:42.227Z,102528.22
2022-10-03T13:58:33.654Z,102530.09
2022-10-03T14:01:28.360Z,102527.50
2022-10-03T14:04:13.633Z,102518.41
2022-10-03T14:06:48.399Z,102523.03
2022-10-03T14:09:32.543Z,102516.53
2022-10-03T14:12:13.636Z,102515.53
2022-10-03T14:15:10.913Z,102516.38
2022-10-03T14:17:51.657Z,102516.38
2022-10-03T14:20:41.270Z,102517.56
2022-10-03T14:23:24.310Z,102512.38
2022-10-03T14:26:08.847Z,102512.94
2022-10-03T14:28:47.260Z,102513.22
2022-10-03T14:31:31.889Z,102527.06
2022-10-03T14:34:44.008Z,102521.88
2022-10-03T14:37:28.358Z,102520.16
2022-10-03T14:40:17.664Z,102505.91
2022-10-03T14:43:21.838Z,102498.84
2022-10-03T14:45:52.095Z,102496.41
2022-10-03T14:48:37.942Z,102492.94
2022-10-03T14:51:20.153Z,102488.34
2022-10-03T14:54:02.513Z,102484.72
2022-10-03T14:56:41.915Z,102484.72
2022-10-03T14:59:33.436Z,102488.78
2022-10-03T15:02:20.462Z,102482.44
2022-10-03T15:04:47.821Z,102488.19
2022-10-03T15:07:15.095Z,102483.03
2022-10-03T15:09:50.414Z,102484.03
2022-10-03T15:12:23.869Z,102484.03
2022-10-03T15:15:18.183Z,102485.03
2022-10-03T15:17:53.649Z,102484.31
2022-10-03T15:20:26.860Z,102481.00
2022-10-03T15:22:56.954Z,102481.31
2022-10-03T15:25:30.633Z,102473.41
2022-10-03T15:28:02.738Z,102468.31
2022-10-03T15:30:33.710Z,102465.88
2022-10-03T15:33:22.945Z,102472.66
2022-10-03T15:35:55.256Z,102467.31
2022-10-03T15:38:27.165Z,102453.22
2022-10-03T15:41:13.387Z,102452.50
2022-10-03T15:44:02.418Z,102446.44
2022-10-03T15:46:52.625Z,102452.78
2022-10-03T15:49:37.459Z,102445.59
2022-10-03T15:52:33.111Z,102444.72
2022-10-03T15:55:12.638Z,102443.00
2022-10-03T15:57:46.043Z,102439.69
2022-10-03T16:00:28.910Z,102434.47
2022-10-03T16:03:29.306Z,102430.31
2022-10-03T16:06:07.574Z,102431.31
2022-10-03T16:08:47.474Z,102421.38
2022-10-03T16:11:21.282Z,102418.06
2022-10-03T16:14:09.065Z,102422.81
2022-10-03T16:16:54.794Z,102422.97
2022-10-03T16:19:33.765Z,102422.25
2022-10-03T16:22:06.230Z,102422.53
2022-10-03T16:25:16.193Z,102429.44
2022-10-03T16:27:53.751Z,102426.00
2022-10-03T16:30:29.891Z,102420.94
2022-10-03T16:33:20.067Z,102422.25
2022-10-03T16:35:54.485Z,102410.59
2022-10-03T16:38:44.801Z,102420.09
2022-10-03T16:41:38.052Z,102418.03
2022-10-03T16:44:22.966Z,102421.63
2022-10-03T16:46:52.510Z,102421.19
2022-10-03T16:49:43.767Z,102417.28
2022-10-03T16:52:16.702Z,102408.03
2022-10-03T16:54:47.036Z,102412.19
2022-10-03T16:57:21.456Z,102413.59
2022-10-03T16:59:51.990Z,102414.03
2022-10-03T17:02:27.213Z,102406.38
2022-10-03T17:05:07.845Z,102414.13
2022-10-03T17:07:42.693Z,102423.75
2022-10-03T17:10:34.757Z,102416.75
2022-10-03T17:13:10.849Z,102413.97
2022-10-03T17:15:46.057Z,102416.66
2022-10-03T17:18:25.421Z,102408.28
2022-10-03T17:21:15.363Z,102399.91
2022-10-03T17:24:04.254Z,102407.03
2022-10-03T17:26:39.234Z,102402.09
2022-10-03T17:29:23.971Z,102400.19
2022-10-03T17:32:05.884Z,102399.84
2022-10-03T17:34:40.575Z,102403.06
2022-10-03T17:37:39.131Z,102398.28
2022-10-03T17:40:59.986Z,102398.94
2022-10-03T17:43:43.101Z,102403.19
2022-10-03T17:46:28.304Z,102391.09
2022-10-03T17:49:18.158Z,102396.06
2022-10-03T17:51:48.115Z,102396.59
2022-10-03T17:54:30.694Z,102401.69
2022-10-03T17:57:12.473Z,102400.44
2022-10-03T17:59:52.710Z,102396.50
2022-10-03T18:02:37.275Z,102388.84
2022-10-03T18:05:18.868Z,102389.97
2022-10-03T18:07:46.883Z,102389.47
2022-10-03T18:10:24.306Z,102384.53
2022-10-03T18:12:54.055Z,102384.03
2022-10-03T18:15:58.095Z,102384.69
2022-10-03T18:18:56.399Z,102391.38
2022-10-03T18:21:46.995Z,102393.47
2022-10-03T18:24:40.470Z,102401.91
2022-10-03T18:27:34.362Z,102399.44
2022-10-03T18:30:16.789Z,102398.94
2022-10-03T18:32:45.568Z,102390.16
2022-10-03T18:35:23.553Z,102387.81
2022-10-03T18:37:55.312Z,102393.50
2022-10-03T18:40:32.845Z,102384.84
2022-10-03T18:43:00.899Z,102385.09
2022-10-03T18:45:32.687Z,102392.78
2022-10-03T18:48:25.295Z,102386.72
2022-10-03T18:51:09.348Z,102389.66
2022-10-03T18:53:44.874Z,102386.28
2022-10-03T18:56:17.156Z,102388.25
2022-10-03T18:58:59.231Z,102384.03
2022-10-03T19:01:33.753Z,102379.72
2022-10-03T19:04:16.281Z,102375.38
2022-10-03T19:06:46.594Z,102380.22
2022-10-03T19:09:25.023Z,102378.72
2022-10-03T19:12:22.427Z,102379.09
2022-10-03T19:15:01.002Z,102381.19
2022-10-03T19:17:53.947Z,102383.28
2022-10-03T19:20:26.773Z,102371.78
2022-10-03T19:23:18.815Z,102367.81
2022-10-03T19:25:52.165Z,102359.91
2022-10-03T19:28:27.491Z,102370.16
2022-10-03T19:31:03.102Z,102357.78
2022-10-03T19:33:36.082Z,102358.78
2022-10-03T19:36:05.655Z,102363.72
2022-10-03T19:38:43.406Z,102357.75
2022-10-03T19:41:25.668Z,102361.72
2022-10-03T19:43:54.546Z,102360.31
2022-10-03T19:46:29.978Z,102360.66
2022-10-03T19:49:02.957Z,102356.44
2022-10-03T19:51:29.544Z,102352.88
2022-10-03T19:53:57.625Z,102358.66
2022-10-03T19:56:26.941Z,102346.38
2022-10-03T19:59:16.574Z,102357.59
2022-10-03T20:01:49.141Z,102360.53
2022-10-03T20:04:31.914Z,102352.53
2022-10-03T20:06:58.758Z,102353.38
2022-10-03T20:09:29.421Z,102349.81
2022-10-03T20:11:59.810Z,102357.72
2022-10-03T20:14:34.569Z,102361.19
2022-10-03T20:17:14.679Z,102368.47
2022-10-03T20:19:54.816Z,102358.59
2022-10-03T20:22:26.521Z,102354.00
2022-10-03T20:24:55.342Z,102357.47
2022-10-03T20:27:36.883Z,102366.38
2022-10-03T20:30:21.577Z,102354.41
2022-10-03T20:32:49.524Z,102355.19
2022-10-03T20:35:21.997Z,102350.75
2022-10-03T20:38:03.446Z,102359.84
2022-10-03T20:40:38.062Z,102354.41
2022-10-03T20:43:23.092Z,102363.34
2022-10-03T20:46:13.565Z,102364.31
2022-10-03T20:48:52.728Z,102359.75
2022-10-03T20:51:23.275Z,102358.97
2022-10-03T20:53:54.841Z,102359.84
2022-10-03T20:56:33.609Z,102366.25
2022-10-03T20:59:05.656Z,102362.56
2022-10-03T21:01:35.195Z,102356.19
2022-10-03T21:04:30.341Z,102348.03
2022-10-03T21:07:04.662Z,102346.91
2022-10-03T21:09:42.930Z,102342.34
2022-10-03T21:12:20.618Z,102349.63
2022-10-03T21:15:33.660Z,102350.50
2022-10-03T21:18:01.692Z,102349.63
2022-10-03T21:20:36.230Z,102358.66
2022-10-03T21:23:12.899Z,102357.78
2022-10-03T21:25:43.746Z,102356.06
2022-10-03T21:28:25.397Z,102357.03
2022-10-03T21:31:27.983Z,102355.19
2022-10-03T21:33:58.324Z,102352.34
2022-10-03T21:36:33.484Z,102355.19
2022-10-03T21:39:15.247Z,102356.19
2022-10-03T21:41:52.636Z,102347.13
2022-10-03T21:44:43.662Z,102338.09
2022-10-03T21:47:44.129Z,102336.50
2022-10-03T21:50:19.229Z,102330.19
2022-10-03T21:53:01.029Z,102327.47
2022-10-03T21:55:53.448Z,102318.69
2022-10-03T21:58:33.231Z,102322.63
2022-10-03T22:01:13.190Z,102316.69
2022-10-03T22:03:57.899Z,102308.78
2022-10-03T22:06:36.702Z,102302.09
2022-10-03T22:09:11.911Z,102308.00
2022-10-03T22:11:47.373Z,102305.63
2022-10-03T22:14:32.679Z,102296.72
2022-10-03T22:17:08.445Z,102301.41
2022-10-03T22:19:43.782Z,102299.03
2022-10-03T22:22:19.265Z,102292.88
2022-10-03T22:25:17.403Z,102288.31
2022-10-03T22:27:56.594Z,102285.06
2022-10-03T22:30:23.501Z,102282.69
2022-10-03T22:32:59.311Z,102284.63
2022-10-03T22:35:31.506Z,102285.50
2022-10-03T22:37:58.102Z,102282.03
2022-10-03T22:40:25.895Z,102285.00
2022-10-03T22:42:56.450Z,102275.34
2022-10-03T22:45:29.566Z,102272.88
2022-10-03T22:47:59.543Z,102267.56
2022-10-03T22:50:31.534Z,102268.53
2022-10-03T22:52:59.933Z,102268.53
2022-10-03T22:55:28.079Z,102262.13
2022-10-03T22:57:55.929Z,102257.69
2022-10-03T23:00:28.577Z,102259.66
2022-10-03T23:03:22.649Z,102258.03
2022-10-03T23:06:11.035Z,102255.53
2022-10-03T23:09:19.625Z,102259.34
2022-10-03T23:11:48.841Z,102250.47
2022-10-03T23:14:23.452Z,102247.88
2022-10-03T23:17:00.628Z,102239.84
2022-10-03T23:19:48.882Z,102240.94
2022-10-03T23:22:19.453Z,102248.09
2022-10-03T23:24:53.958Z,102242.91
2022-10-03T23:27:38.654Z,102238.47
2022-10-03T23:30:11.292Z,102231.31
2022-10-03T23:32:47.022Z,102235.09
2022-10-03T23:35:17.279Z,102229.91
2022-10-03T23:37:48.343Z,102229.91
2022-10-03T23:40:32.938Z,102228.16
2022-10-03T23:43:29.310Z,102219.16
2022-10-03T23:46:05.269Z,102230.97
2022-10-03T23:48:42.286Z,102239.13
2022-10-03T23:51:12.935Z,102245.41
2022-10-03T23:53:51.358Z,102253.66
2022-10-03T23:56:38.152Z,102251.06
2022-10-03T23:59:05.083Z,102260.06
